Airfield :
LOGIN :

Register | Disclaimer

   EN    FR    IT 

 










Legend :    VFR   Marginal VFR   IFR   Intensive IFR   Very Intensive IFR
Visi :
Ceiling :
>= 8 km
>= 3000ft
5 to 8 km
1000 to 3000 ft
1500m to 5 km
500 to 1000 ft
800 to 1500m
200 to 500 ft
< 800m
< 200 ft
Symbols :   Thunderstorms  Fog  Heavy snow  Heavy precipitations  Wind > 20 kt
SIGMETs :     Misc.  Thunderstorms  Icing  Turbulence  Mountain Waves  Volcanic Ashes






- Airport Elevation : 989 ft
- IATA code : TRN


LIMF - Torino Caselle

CURRENT METAR :
  • 070720Z VRB02KT 9999 FEW035TCU SCT070 25/17 Q1018

EXPIRED METARs :
  • 070650Z VRB02KT 9999 FEW035TCU BKN060 24/18 Q1018
  • 070620Z VRB01KT 9999 FEW035TCU SCT050 23/18 Q1018
  • 070550Z 10003KT 330V140 9999 FEW030CB SCT050 22/18 Q1018
  • 070520Z 35004KT 9999 FEW030CB SCT050 22/18 Q1017 RETS
  • 070450Z 36003KT 330V030 9999 FEW030 SCT060 22/18 Q1017

TAF TAF LIMF
Valid from the 07 at 06:00 until the 08 at 06:00 UTC


070500Z 0706/0806 VRB06KT CAVOK



MET'MAP, your aeronautical weather chart ! - Copyright ORBIFLY December 2007 - Disclaimer

ORBIFLY MET'MAP TEAM :

Programming & Development : Alexandra Zaïnal
Original concept : Baudouin d'Aumeries
Technical & hardware support : Manuel Goepfert
Assistance : Marc-Olivier Méhu




SOURCES & CREDITS :

   NOAA